createdAt,value
2019-05-26T00:02:45.160Z,100.00
2019-05-26T00:07:49.597Z,100.00
2019-05-26T00:12:54.756Z,100.00
2019-05-26T00:17:58.940Z,100.00
2019-05-26T00:23:03.421Z,100.00
2019-05-26T00:28:07.440Z,100.00
2019-05-26T00:33:11.468Z,100.00
2019-05-26T00:38:15.898Z,100.00
2019-05-26T00:43:19.912Z,100.00
2019-05-26T00:48:23.924Z,100.00
2019-05-26T00:53:28.020Z,100.00
2019-05-26T00:58:32.062Z,100.00
2019-05-26T01:03:36.571Z,100.00
2019-05-26T01:08:40.713Z,100.00
2019-05-26T01:13:45.053Z,100.00
2019-05-26T01:18:49.933Z,100.00
2019-05-26T01:23:54.003Z,100.00
2019-05-26T01:28:58.055Z,100.00
2019-05-26T01:34:02.471Z,100.00
2019-05-26T01:39:07.365Z,100.00
2019-05-26T01:44:11.486Z,100.00
2019-05-26T01:49:15.526Z,100.00
2019-05-26T01:54:19.566Z,100.00
2019-05-26T01:59:23.613Z,100.00
2019-05-26T02:04:27.798Z,100.00
2019-05-26T02:09:31.898Z,100.00
2019-05-26T02:14:35.922Z,100.00
2019-05-26T02:19:39.984Z,100.00
2019-05-26T02:24:44.024Z,100.00
2019-05-26T02:29:48.060Z,100.00
2019-05-26T02:34:52.498Z,100.00
2019-05-26T02:39:56.580Z,100.00
2019-05-26T02:45:00.605Z,100.00
2019-05-26T02:50:05.407Z,100.00
2019-05-26T02:55:10.148Z,100.00
2019-05-26T03:00:15.104Z,100.00
2019-05-26T03:05:19.182Z,100.00
2019-05-26T03:10:23.307Z,100.00
2019-05-26T03:15:27.849Z,100.00
2019-05-26T03:20:36.956Z,100.00
2019-05-26T03:25:41.038Z,100.00
2019-05-26T03:30:45.207Z,100.00
2019-05-26T03:35:49.444Z,100.00
2019-05-26T03:40:53.546Z,100.00
2019-05-26T03:46:16.237Z,100.00
2019-05-26T03:51:20.385Z,100.00
2019-05-26T03:56:24.744Z,100.00
2019-05-26T04:01:29.187Z,100.00
2019-05-26T04:06:33.244Z,100.00
2019-05-26T04:11:37.359Z,98.80
2019-05-26T04:16:41.512Z,96.49
2019-05-26T04:21:46.191Z,93.07
2019-05-26T04:26:50.236Z,91.73
2019-05-26T04:31:54.685Z,88.83
2019-05-26T04:36:59.226Z,84.93
2019-05-26T04:42:03.846Z,79.09
2019-05-26T04:47:07.895Z,72.69
2019-05-26T04:52:12.135Z,67.54
2019-05-26T04:57:16.225Z,63.43
2019-05-26T05:02:20.393Z,55.33
2019-05-26T05:07:28.331Z,49.34
2019-05-26T05:12:30.968Z,45.30
2019-05-26T05:17:35.134Z,42.64
2019-05-26T05:22:39.504Z,41.33
2019-05-26T05:27:43.663Z,42.01
2019-05-26T05:32:48.111Z,42.03
2019-05-26T05:37:52.733Z,39.97
2019-05-26T05:42:56.884Z,40.11
2019-05-26T05:48:03.557Z,43.29
2019-05-26T05:53:08.591Z,40.25
2019-05-26T06:03:18.659Z,44.19
2019-05-26T06:08:21.336Z,44.76
2019-05-26T06:13:25.359Z,44.86
2019-05-26T06:18:29.389Z,44.87
2019-05-26T06:23:36.843Z,40.71
2019-05-26T06:28:40.043Z,40.00
2019-05-26T06:33:44.178Z,39.29
2019-05-26T06:38:49.485Z,36.13
2019-05-26T06:43:53.954Z,37.25
2019-05-26T06:48:58.168Z,40.74
2019-05-26T06:54:02.212Z,37.23
2019-05-26T06:59:06.275Z,33.46
2019-05-26T07:04:10.324Z,37.94
2019-05-26T07:09:14.756Z,36.35
2019-05-26T07:14:36.915Z,36.82
2019-05-26T07:19:41.001Z,36.28
2019-05-26T07:24:45.094Z,35.03
2019-05-26T07:29:49.551Z,33.20
2019-05-26T07:34:53.617Z,32.25
2019-05-26T07:39:57.767Z,30.75
2019-05-26T07:45:01.913Z,33.09
2019-05-26T07:50:06.654Z,33.23
2019-05-26T07:55:11.076Z,35.51
2019-05-26T08:00:15.427Z,36.69
2019-05-26T08:05:19.483Z,36.51
2019-05-26T08:10:23.620Z,35.89
2019-05-26T08:15:27.648Z,36.30
2019-05-26T08:20:31.823Z,35.42
2019-05-26T08:25:37.312Z,34.55
2019-05-26T08:30:41.384Z,35.88
2019-05-26T08:35:45.406Z,34.77
2019-05-26T08:40:49.519Z,34.85
2019-05-26T08:45:54.805Z,34.02
2019-05-26T08:50:58.903Z,36.15
2019-05-26T08:56:03.297Z,34.77
2019-05-26T09:01:07.469Z,32.35
2019-05-26T09:06:11.630Z,31.57
2019-05-26T09:11:15.671Z,33.54
2019-05-26T09:16:20.394Z,35.46
2019-05-26T09:21:24.459Z,36.05
2019-05-26T09:26:29.940Z,36.62
2019-05-26T09:31:34.406Z,33.93
2019-05-26T09:36:38.518Z,37.49
2019-05-26T09:41:42.895Z,38.21
2019-05-26T09:46:47.936Z,35.74
2019-05-26T09:51:51.995Z,31.52
2019-05-26T09:57:17.996Z,32.67
2019-05-26T10:02:22.107Z,34.41
2019-05-26T10:07:26.418Z,34.90
2019-05-26T10:12:30.531Z,35.69
2019-05-26T10:17:34.555Z,33.17
2019-05-26T10:22:57.125Z,34.24
2019-05-26T10:28:01.242Z,35.21
2019-05-26T10:33:05.311Z,35.13
2019-05-26T10:38:11.103Z,36.56
2019-05-26T10:43:15.236Z,36.08
2019-05-26T10:48:19.234Z,31.87
2019-05-26T10:53:23.286Z,33.65
2019-05-26T10:58:46.627Z,34.43
2019-05-26T11:04:08.825Z,35.31
2019-05-26T11:09:12.900Z,35.24
2019-05-26T11:14:16.982Z,34.66
2019-05-26T11:19:21.397Z,34.85
2019-05-26T11:24:26.021Z,35.55
2019-05-26T11:29:30.952Z,34.23
2019-05-26T11:34:35.309Z,33.56
2019-05-26T11:39:39.935Z,33.97
2019-05-26T11:44:44.063Z,34.97
2019-05-26T11:49:50.692Z,33.94
2019-05-26T11:54:54.841Z,35.14
2019-05-26T11:59:58.907Z,34.56
2019-05-26T12:05:03.235Z,33.54
2019-05-26T12:10:07.985Z,33.47
2019-05-26T12:15:13.149Z,34.01
2019-05-26T12:20:18.115Z,34.76
2019-05-26T12:25:22.367Z,34.76
2019-05-26T12:30:34.630Z,36.08
2019-05-26T12:35:44.521Z,35.65
2019-05-26T12:40:48.803Z,35.29
2019-05-26T12:45:53.224Z,35.47
2019-05-26T12:50:57.241Z,35.11
2019-05-26T12:56:03.132Z,35.41
2019-05-26T13:01:07.159Z,36.87
2019-05-26T13:06:11.662Z,35.63
2019-05-26T13:11:16.483Z,36.65
2019-05-26T13:17:02.651Z,35.13
2019-05-26T13:22:16.296Z,33.88
2019-05-26T13:27:19.593Z,32.37
2019-05-26T13:32:32.417Z,30.01
2019-05-26T13:37:50.010Z,31.07
2019-05-26T13:42:54.683Z,34.33
2019-05-26T13:48:04.618Z,33.77
2019-05-26T13:53:27.097Z,32.92
2019-05-26T13:58:41.471Z,33.86
2019-05-26T14:03:54.761Z,32.15
2019-05-26T14:09:02.303Z,31.62
2019-05-26T14:14:14.607Z,32.54
2019-05-26T14:19:37.129Z,32.89
2019-05-26T14:24:53.816Z,33.48
2019-05-26T14:30:02.291Z,34.40
2019-05-26T14:35:14.938Z,33.45
2019-05-26T14:40:21.125Z,34.67
2019-05-26T14:45:33.302Z,34.83
2019-05-26T14:50:49.012Z,35.00
2019-05-26T14:56:15.453Z,33.83
2019-05-26T15:01:27.665Z,33.15
2019-05-26T15:06:41.631Z,33.05
2019-05-26T15:11:53.441Z,34.94
2019-05-26T15:17:20.157Z,35.25
2019-05-26T15:22:31.580Z,35.15
2019-05-26T15:27:39.927Z,37.29
2019-05-26T15:32:49.281Z,35.14
2019-05-26T15:38:09.794Z,33.65
2019-05-26T15:43:14.842Z,36.72
2019-05-26T15:48:27.934Z,38.59
2019-05-26T15:53:37.145Z,38.70
2019-05-26T15:59:03.031Z,39.55
2019-05-26T16:04:13.290Z,40.07
2019-05-26T16:09:24.527Z,41.18
2019-05-26T16:14:41.992Z,41.14
2019-05-26T16:19:54.557Z,40.82
2019-05-26T16:25:04.026Z,39.90
2019-05-26T16:30:15.534Z,40.29
2019-05-26T16:35:26.286Z,39.48
2019-05-26T16:40:46.778Z,37.98
2019-05-26T16:46:14.276Z,37.79
2019-05-26T16:51:38.147Z,36.06
2019-05-26T16:56:56.055Z,37.92
2019-05-26T17:02:17.526Z,37.03
2019-05-26T17:07:25.027Z,38.66
2019-05-26T17:12:58.080Z,38.12
2019-05-26T17:18:08.730Z,38.05
2019-05-26T17:23:12.997Z,39.41
2019-05-26T17:28:17.159Z,40.90
2019-05-26T17:33:21.600Z,40.01
2019-05-26T17:38:26.038Z,40.78
2019-05-26T17:43:30.434Z,41.39
2019-05-26T17:48:34.816Z,41.12
2019-05-26T17:53:38.941Z,41.55
2019-05-26T17:58:43.414Z,42.13
2019-05-26T18:03:47.628Z,42.99
2019-05-26T18:08:51.743Z,43.51
2019-05-26T18:13:56.159Z,44.10
2019-05-26T18:19:01.306Z,44.55
2019-05-26T18:24:05.667Z,45.81
2019-05-26T18:29:09.905Z,46.33
2019-05-26T18:34:14.177Z,46.96
2019-05-26T18:39:18.453Z,46.51
2019-05-26T18:44:22.541Z,45.89
2019-05-26T18:49:26.678Z,46.81
2019-05-26T18:54:31.095Z,47.32
2019-05-26T18:59:35.318Z,48.16
2019-05-26T19:05:01.618Z,49.30
2019-05-26T19:10:13.938Z,49.67
2019-05-26T19:15:21.883Z,49.84
2019-05-26T19:20:27.560Z,50.48
2019-05-26T19:25:31.758Z,50.83
2019-05-26T19:30:35.783Z,50.48
2019-05-26T19:35:40.218Z,51.01
2019-05-26T19:40:44.998Z,51.92
2019-05-26T19:45:49.480Z,52.66
2019-05-26T19:50:55.405Z,52.87
2019-05-26T19:55:59.473Z,53.30
2019-05-26T20:01:03.714Z,54.09
2019-05-26T20:06:08.208Z,55.45
2019-05-26T20:11:13.193Z,56.63
2019-05-26T20:16:20.728Z,56.52
2019-05-26T20:21:25.908Z,56.65
2019-05-26T20:26:29.971Z,57.03
2019-05-26T20:31:34.124Z,57.12
2019-05-26T20:36:39.913Z,56.74
2019-05-26T20:41:44.035Z,57.22
2019-05-26T20:46:48.372Z,58.03
2019-05-26T20:51:53.443Z,57.86
2019-05-26T20:56:58.200Z,58.25
2019-05-26T21:02:03.577Z,57.91
2019-05-26T21:07:08.676Z,57.88
2019-05-26T21:12:12.939Z,58.15
2019-05-26T21:17:17.266Z,58.32
2019-05-26T21:22:21.461Z,58.23
2019-05-26T21:27:25.985Z,58.81
2019-05-26T21:32:31.495Z,58.79
2019-05-26T21:37:36.621Z,59.20
2019-05-26T21:42:41.846Z,59.41
2019-05-26T21:47:45.985Z,59.89
2019-05-26T21:52:50.047Z,59.28
2019-05-26T21:57:54.179Z,59.12
2019-05-26T22:02:58.192Z,58.99
2019-05-26T22:08:05.416Z,58.77
2019-05-26T22:13:09.848Z,58.89
2019-05-26T22:18:13.976Z,59.13
2019-05-26T22:23:18.503Z,59.54
2019-05-26T22:28:22.640Z,59.99
2019-05-26T22:33:27.039Z,59.82
2019-05-26T22:38:31.228Z,59.89
2019-05-26T22:43:35.532Z,59.67
2019-05-26T22:48:39.680Z,60.11
2019-05-26T22:53:44.172Z,59.66
2019-05-26T22:58:48.510Z,59.55
2019-05-26T23:03:52.814Z,59.75
2019-05-26T23:08:56.961Z,60.34
2019-05-26T23:14:01.245Z,60.38
2019-05-26T23:19:18.336Z,59.89
2019-05-26T23:24:10.989Z,59.73
2019-05-26T23:29:15.035Z,59.33
2019-05-26T23:34:19.133Z,59.09
2019-05-26T23:39:23.196Z,59.51
2019-05-26T23:44:27.412Z,60.23
2019-05-26T23:49:31.446Z,60.58
2019-05-26T23:54:36.730Z,61.05
2019-05-26T23:59:40.736Z,61.00
